sensor_id;sensor_type;location;lat;lon;timestamp;P1;durP1;ratioP1;P2;durP2;ratioP2
69392;SDS011;56582;44.624;20.378;2023-12-20T00:00:57;38.47;;;19.53;;
69392;SDS011;56582;44.624;20.378;2023-12-20T00:03:22;33.50;;;17.65;;
69392;SDS011;56582;44.624;20.378;2023-12-20T00:05:49;59.30;;;26.23;;
69392;SDS011;56582;44.624;20.378;2023-12-20T00:08:15;37.67;;;18.57;;
69392;SDS011;56582;44.624;20.378;2023-12-20T00:10:41;36.25;;;18.63;;
69392;SDS011;56582;44.624;20.378;2023-12-20T00:13:06;66.70;;;29.03;;
69392;SDS011;56582;44.624;20.378;2023-12-20T00:15:33;64.00;;;30.88;;
69392;SDS011;56582;44.624;20.378;2023-12-20T00:17:59;52.63;;;26.58;;
69392;SDS011;56582;44.624;20.378;2023-12-20T00:20:24;34.67;;;19.00;;
69392;SDS011;56582;44.624;20.378;2023-12-20T00:22:50;33.90;;;20.25;;
69392;SDS011;56582;44.624;20.378;2023-12-20T00:25:15;39.00;;;19.73;;
69392;SDS011;56582;44.624;20.378;2023-12-20T00:27:41;31.63;;;19.80;;
69392;SDS011;56582;44.624;20.378;2023-12-20T00:30:07;34.20;;;19.40;;
69392;SDS011;56582;44.624;20.378;2023-12-20T00:32:33;32.58;;;18.20;;
69392;SDS011;56582;44.624;20.378;2023-12-20T00:34:58;35.63;;;20.23;;
69392;SDS011;56582;44.624;20.378;2023-12-20T00:37:24;30.80;;;17.97;;
69392;SDS011;56582;44.624;20.378;2023-12-20T00:39:49;27.80;;;16.83;;
69392;SDS011;56582;44.624;20.378;2023-12-20T00:42:15;31.93;;;16.73;;
69392;SDS011;56582;44.624;20.378;2023-12-20T00:44:40;30.10;;;16.13;;
69392;SDS011;56582;44.624;20.378;2023-12-20T00:47:06;29.80;;;15.53;;
69392;SDS011;56582;44.624;20.378;2023-12-20T00:49:32;29.70;;;14.88;;
69392;SDS011;56582;44.624;20.378;2023-12-20T00:51:57;30.10;;;15.57;;
69392;SDS011;56582;44.624;20.378;2023-12-20T00:54:23;27.47;;;14.43;;
69392;SDS011;56582;44.624;20.378;2023-12-20T00:56:48;26.02;;;14.27;;
69392;SDS011;56582;44.624;20.378;2023-12-20T00:59:14;23.87;;;13.07;;
69392;SDS011;56582;44.624;20.378;2023-12-20T01:01:41;25.67;;;14.35;;
69392;SDS011;56582;44.624;20.378;2023-12-20T01:04:07;24.80;;;14.02;;
69392;SDS011;56582;44.624;20.378;2023-12-20T01:06:33;24.27;;;14.43;;
69392;SDS011;56582;44.624;20.378;2023-12-20T01:08:58;22.07;;;13.33;;
69392;SDS011;56582;44.624;20.378;2023-12-20T01:11:24;26.90;;;14.90;;
69392;SDS011;56582;44.624;20.378;2023-12-20T01:13:49;79.17;;;36.10;;
69392;SDS011;56582;44.624;20.378;2023-12-20T01:16:15;101.73;;;41.93;;
69392;SDS011;56582;44.624;20.378;2023-12-20T01:18:40;72.25;;;33.08;;
69392;SDS011;56582;44.624;20.378;2023-12-20T01:21:06;98.40;;;43.27;;
69392;SDS011;56582;44.624;20.378;2023-12-20T01:23:32;99.00;;;44.53;;
69392;SDS011;56582;44.624;20.378;2023-12-20T01:25:59;42.83;;;21.30;;
69392;SDS011;56582;44.624;20.378;2023-12-20T01:28:28;36.83;;;19.92;;
69392;SDS011;56582;44.624;20.378;2023-12-20T01:30:53;38.60;;;21.98;;
69392;SDS011;56582;44.624;20.378;2023-12-20T01:33:19;14.60;;;9.87;;
69392;SDS011;56582;44.624;20.378;2023-12-20T01:35:44;13.33;;;7.60;;
69392;SDS011;56582;44.624;20.378;2023-12-20T01:38:10;10.57;;;7.35;;
69392;SDS011;56582;44.624;20.378;2023-12-20T01:40:35;11.13;;;6.73;;
69392;SDS011;56582;44.624;20.378;2023-12-20T01:43:07;12.50;;;6.97;;
69392;SDS011;56582;44.624;20.378;2023-12-20T01:45:34;14.43;;;8.20;;
69392;SDS011;56582;44.624;20.378;2023-12-20T01:47:59;15.82;;;9.50;;
69392;SDS011;56582;44.624;20.378;2023-12-20T01:50:27;15.30;;;8.98;;
69392;SDS011;56582;44.624;20.378;2023-12-20T01:52:53;17.05;;;9.73;;
69392;SDS011;56582;44.624;20.378;2023-12-20T01:55:23;18.67;;;10.65;;
69392;SDS011;56582;44.624;20.378;2023-12-20T01:57:49;16.37;;;9.87;;
69392;SDS011;56582;44.624;20.378;2023-12-20T02:00:16;14.80;;;9.43;;
69392;SDS011;56582;44.624;20.378;2023-12-20T02:02:43;14.45;;;9.00;;
69392;SDS011;56582;44.624;20.378;2023-12-20T02:05:10;11.55;;;7.85;;
69392;SDS011;56582;44.624;20.378;2023-12-20T02:07:36;75.30;;;25.70;;
69392;SDS011;56582;44.624;20.378;2023-12-20T02:10:02;44.07;;;16.77;;
69392;SDS011;56582;44.624;20.378;2023-12-20T02:12:29;20.30;;;10.77;;
69392;SDS011;56582;44.624;20.378;2023-12-20T02:14:55;15.20;;;8.40;;
69392;SDS011;56582;44.624;20.378;2023-12-20T02:17:21;16.67;;;7.70;;
69392;SDS011;56582;44.624;20.378;2023-12-20T02:19:47;17.38;;;9.77;;
69392;SDS011;56582;44.624;20.378;2023-12-20T02:22:13;16.93;;;8.60;;
69392;SDS011;56582;44.624;20.378;2023-12-20T02:24:38;11.88;;;7.82;;
69392;SDS011;56582;44.624;20.378;2023-12-20T02:27:05;13.73;;;8.20;;
69392;SDS011;56582;44.624;20.378;2023-12-20T02:29:32;13.18;;;8.15;;
69392;SDS011;56582;44.624;20.378;2023-12-20T02:31:58;13.70;;;8.20;;
69392;SDS011;56582;44.624;20.378;2023-12-20T02:34:24;15.10;;;8.67;;
69392;SDS011;56582;44.624;20.378;2023-12-20T02:36:50;12.98;;;8.20;;
69392;SDS011;56582;44.624;20.378;2023-12-20T02:39:15;14.87;;;9.17;;
69392;SDS011;56582;44.624;20.378;2023-12-20T02:41:41;17.10;;;9.02;;
69392;SDS011;56582;44.624;20.378;2023-12-20T02:44:07;14.63;;;8.40;;
69392;SDS011;56582;44.624;20.378;2023-12-20T02:46:32;14.73;;;8.73;;
69392;SDS011;56582;44.624;20.378;2023-12-20T02:48:58;14.20;;;8.90;;
69392;SDS011;56582;44.624;20.378;2023-12-20T02:51:23;13.47;;;8.70;;
69392;SDS011;56582;44.624;20.378;2023-12-20T02:53:49;13.57;;;8.43;;
69392;SDS011;56582;44.624;20.378;2023-12-20T02:56:14;13.93;;;9.00;;
69392;SDS011;56582;44.624;20.378;2023-12-20T02:58:40;15.57;;;8.40;;
69392;SDS011;56582;44.624;20.378;2023-12-20T03:01:06;16.58;;;10.00;;
69392;SDS011;56582;44.624;20.378;2023-12-20T03:03:31;46.53;;;19.88;;
69392;SDS011;56582;44.624;20.378;2023-12-20T03:05:57;55.30;;;23.37;;
69392;SDS011;56582;44.624;20.378;2023-12-20T03:08:23;69.67;;;31.77;;
69392;SDS011;56582;44.624;20.378;2023-12-20T03:10:49;57.17;;;24.30;;
69392;SDS011;56582;44.624;20.378;2023-12-20T03:13:15;69.90;;;26.85;;
69392;SDS011;56582;44.624;20.378;2023-12-20T03:15:40;47.50;;;22.87;;
69392;SDS011;56582;44.624;20.378;2023-12-20T03:18:06;55.65;;;23.17;;
69392;SDS011;56582;44.624;20.378;2023-12-20T03:20:31;28.77;;;15.10;;
69392;SDS011;56582;44.624;20.378;2023-12-20T03:23:00;17.95;;;9.85;;
69392;SDS011;56582;44.624;20.378;2023-12-20T03:25:26;16.00;;;9.48;;
69392;SDS011;56582;44.624;20.378;2023-12-20T03:27:52;14.10;;;9.17;;
69392;SDS011;56582;44.624;20.378;2023-12-20T03:30:18;16.33;;;9.52;;
69392;SDS011;56582;44.624;20.378;2023-12-20T03:32:43;15.47;;;9.50;;
69392;SDS011;56582;44.624;20.378;2023-12-20T03:35:09;15.55;;;9.65;;
69392;SDS011;56582;44.624;20.378;2023-12-20T03:37:35;13.53;;;8.53;;
69392;SDS011;56582;44.624;20.378;2023-12-20T03:40:01;14.07;;;9.68;;
69392;SDS011;56582;44.624;20.378;2023-12-20T03:42:27;14.55;;;8.80;;
69392;SDS011;56582;44.624;20.378;2023-12-20T03:44:53;16.20;;;10.00;;
69392;SDS011;56582;44.624;20.378;2023-12-20T03:47:18;15.07;;;9.30;;
69392;SDS011;56582;44.624;20.378;2023-12-20T03:49:44;13.27;;;8.20;;
69392;SDS011;56582;44.624;20.378;2023-12-20T03:52:09;14.37;;;8.43;;
69392;SDS011;56582;44.624;20.378;2023-12-20T03:54:35;14.77;;;8.37;;
69392;SDS011;56582;44.624;20.378;2023-12-20T03:57:01;15.52;;;9.15;;
69392;SDS011;56582;44.624;20.378;2023-12-20T03:59:26;14.02;;;8.82;;
69392;SDS011;56582;44.624;20.378;2023-12-20T04:01:52;15.50;;;8.77;;
69392;SDS011;56582;44.624;20.378;2023-12-20T04:04:17;12.83;;;8.63;;
69392;SDS011;56582;44.624;20.378;2023-12-20T04:06:43;13.35;;;8.27;;
69392;SDS011;56582;44.624;20.378;2023-12-20T04:09:09;12.07;;;7.97;;
69392;SDS011;56582;44.624;20.378;2023-12-20T04:11:34;15.07;;;8.60;;
69392;SDS011;56582;44.624;20.378;2023-12-20T04:14:01;13.67;;;7.73;;
69392;SDS011;56582;44.624;20.378;2023-12-20T04:16:27;13.15;;;8.02;;
69392;SDS011;56582;44.624;20.378;2023-12-20T04:18:52;13.87;;;8.77;;
69392;SDS011;56582;44.624;20.378;2023-12-20T04:21:17;12.80;;;7.93;;
69392;SDS011;56582;44.624;20.378;2023-12-20T04:23:43;12.77;;;8.00;;
69392;SDS011;56582;44.624;20.378;2023-12-20T04:26:09;13.37;;;8.43;;
69392;SDS011;56582;44.624;20.378;2023-12-20T04:28:35;16.80;;;9.00;;
69392;SDS011;56582;44.624;20.378;2023-12-20T04:31:01;19.73;;;14.07;;
69392;SDS011;56582;44.624;20.378;2023-12-20T04:33:26;21.25;;;14.15;;
69392;SDS011;56582;44.624;20.378;2023-12-20T04:35:52;15.48;;;11.00;;
69392;SDS011;56582;44.624;20.378;2023-12-20T04:38:18;13.33;;;9.23;;
69392;SDS011;56582;44.624;20.378;2023-12-20T04:40:43;18.60;;;9.47;;
69392;SDS011;56582;44.624;20.378;2023-12-20T04:43:09;14.60;;;8.88;;
69392;SDS011;56582;44.624;20.378;2023-12-20T04:45:34;14.87;;;9.33;;
69392;SDS011;56582;44.624;20.378;2023-12-20T04:48:01;18.70;;;10.17;;
69392;SDS011;56582;44.624;20.378;2023-12-20T04:50:26;16.15;;;10.35;;
69392;SDS011;56582;44.624;20.378;2023-12-20T04:52:52;13.93;;;8.83;;
69392;SDS011;56582;44.624;20.378;2023-12-20T04:55:17;16.95;;;10.57;;
69392;SDS011;56582;44.624;20.378;2023-12-20T04:57:43;15.90;;;11.93;;
69392;SDS011;56582;44.624;20.378;2023-12-20T05:00:08;17.07;;;10.67;;
69392;SDS011;56582;44.624;20.378;2023-12-20T05:02:37;16.15;;;10.95;;
69392;SDS011;56582;44.624;20.378;2023-12-20T05:05:03;17.92;;;10.65;;
69392;SDS011;56582;44.624;20.378;2023-12-20T05:07:28;18.20;;;11.27;;
69392;SDS011;56582;44.624;20.378;2023-12-20T05:09:54;17.53;;;10.70;;
69392;SDS011;56582;44.624;20.378;2023-12-20T05:12:19;15.77;;;10.80;;
69392;SDS011;56582;44.624;20.378;2023-12-20T05:14:45;14.43;;;9.50;;
69392;SDS011;56582;44.624;20.378;2023-12-20T05:17:11;24.53;;;14.20;;
69392;SDS011;56582;44.624;20.378;2023-12-20T05:19:37;24.33;;;13.63;;
69392;SDS011;56582;44.624;20.378;2023-12-20T05:22:03;21.27;;;12.83;;
69392;SDS011;56582;44.624;20.378;2023-12-20T05:24:28;17.75;;;12.98;;
69392;SDS011;56582;44.624;20.378;2023-12-20T05:26:54;21.80;;;12.93;;
69392;SDS011;56582;44.624;20.378;2023-12-20T05:29:19;19.73;;;11.87;;
69392;SDS011;56582;44.624;20.378;2023-12-20T05:31:45;18.85;;;12.00;;
69392;SDS011;56582;44.624;20.378;2023-12-20T05:34:11;16.50;;;10.90;;
69392;SDS011;56582;44.624;20.378;2023-12-20T05:36:36;18.13;;;11.90;;
69392;SDS011;56582;44.624;20.378;2023-12-20T05:39:03;19.27;;;13.02;;
69392;SDS011;56582;44.624;20.378;2023-12-20T05:41:29;21.10;;;12.83;;
69392;SDS011;56582;44.624;20.378;2023-12-20T05:43:58;23.40;;;14.80;;
69392;SDS011;56582;44.624;20.378;2023-12-20T05:46:24;28.00;;;16.77;;
69392;SDS011;56582;44.624;20.378;2023-12-20T05:48:50;25.75;;;16.80;;
69392;SDS011;56582;44.624;20.378;2023-12-20T05:51:19;22.88;;;14.45;;
69392;SDS011;56582;44.624;20.378;2023-12-20T05:53:44;24.03;;;15.60;;
69392;SDS011;56582;44.624;20.378;2023-12-20T05:56:10;23.43;;;14.67;;
69392;SDS011;56582;44.624;20.378;2023-12-20T05:58:36;22.67;;;15.15;;
69392;SDS011;56582;44.624;20.378;2023-12-20T06:01:05;23.63;;;14.67;;
69392;SDS011;56582;44.624;20.378;2023-12-20T06:03:30;25.90;;;15.02;;
69392;SDS011;56582;44.624;20.378;2023-12-20T06:05:56;24.47;;;15.23;;
69392;SDS011;56582;44.624;20.378;2023-12-20T06:08:22;25.20;;;15.63;;
69392;SDS011;56582;44.624;20.378;2023-12-20T06:10:47;25.90;;;15.23;;
69392;SDS011;56582;44.624;20.378;2023-12-20T06:13:13;26.63;;;16.20;;
69392;SDS011;56582;44.624;20.378;2023-12-20T06:15:39;28.83;;;17.77;;
69392;SDS011;56582;44.624;20.378;2023-12-20T06:18:05;29.83;;;17.50;;
69392;SDS011;56582;44.624;20.378;2023-12-20T06:20:31;26.88;;;15.75;;
69392;SDS011;56582;44.624;20.378;2023-12-20T06:22:57;25.05;;;15.00;;
69392;SDS011;56582;44.624;20.378;2023-12-20T06:25:23;36.00;;;21.50;;
69392;SDS011;56582;44.624;20.378;2023-12-20T06:27:48;69.83;;;37.30;;
69392;SDS011;56582;44.624;20.378;2023-12-20T06:30:14;66.30;;;36.75;;
69392;SDS011;56582;44.624;20.378;2023-12-20T06:32:40;51.60;;;28.30;;
69392;SDS011;56582;44.624;20.378;2023-12-20T06:35:07;36.35;;;22.25;;
69392;SDS011;56582;44.624;20.378;2023-12-20T06:37:33;28.67;;;16.13;;
69392;SDS011;56582;44.624;20.378;2023-12-20T06:39:59;25.50;;;16.20;;
69392;SDS011;56582;44.624;20.378;2023-12-20T06:42:24;24.42;;;15.27;;
69392;SDS011;56582;44.624;20.378;2023-12-20T06:44:50;23.47;;;14.43;;
69392;SDS011;56582;44.624;20.378;2023-12-20T06:47:15;21.80;;;14.23;;
69392;SDS011;56582;44.624;20.378;2023-12-20T06:49:41;23.47;;;14.63;;
69392;SDS011;56582;44.624;20.378;2023-12-20T06:52:06;23.52;;;13.55;;
69392;SDS011;56582;44.624;20.378;2023-12-20T06:54:32;117.90;;;54.73;;
69392;SDS011;56582;44.624;20.378;2023-12-20T06:56:59;169.82;;;74.72;;
69392;SDS011;56582;44.624;20.378;2023-12-20T06:59:25;83.85;;;40.60;;
69392;SDS011;56582;44.624;20.378;2023-12-20T07:01:51;34.90;;;19.87;;
69392;SDS011;56582;44.624;20.378;2023-12-20T07:04:17;29.75;;;16.63;;
69392;SDS011;56582;44.624;20.378;2023-12-20T07:06:47;24.90;;;15.13;;
69392;SDS011;56582;44.624;20.378;2023-12-20T07:09:17;29.00;;;16.58;;
69392;SDS011;56582;44.624;20.378;2023-12-20T07:11:42;26.87;;;17.43;;
69392;SDS011;56582;44.624;20.378;2023-12-20T07:14:08;31.83;;;19.10;;
69392;SDS011;56582;44.624;20.378;2023-12-20T07:16:34;31.75;;;19.90;;
69392;SDS011;56582;44.624;20.378;2023-12-20T07:19:00;31.55;;;17.92;;
69392;SDS011;56582;44.624;20.378;2023-12-20T07:21:25;29.23;;;18.00;;
69392;SDS011;56582;44.624;20.378;2023-12-20T07:23:51;31.30;;;19.07;;
69392;SDS011;56582;44.624;20.378;2023-12-20T07:26:16;32.70;;;18.38;;
69392;SDS011;56582;44.624;20.378;2023-12-20T07:28:42;29.13;;;18.02;;
69392;SDS011;56582;44.624;20.378;2023-12-20T07:31:08;33.37;;;19.60;;
69392;SDS011;56582;44.624;20.378;2023-12-20T07:33:33;32.13;;;19.27;;
69392;SDS011;56582;44.624;20.378;2023-12-20T07:35:59;31.63;;;19.25;;
69392;SDS011;56582;44.624;20.378;2023-12-20T07:38:25;22.50;;;13.97;;
69392;SDS011;56582;44.624;20.378;2023-12-20T07:40:52;367.80;;;142.95;;
69392;SDS011;56582;44.624;20.378;2023-12-20T07:43:17;95.97;;;44.38;;
69392;SDS011;56582;44.624;20.378;2023-12-20T07:45:43;78.77;;;35.83;;
69392;SDS011;56582;44.624;20.378;2023-12-20T07:48:08;43.23;;;23.87;;
69392;SDS011;56582;44.624;20.378;2023-12-20T07:50:34;30.42;;;18.63;;
69392;SDS011;56582;44.624;20.378;2023-12-20T07:53:00;40.80;;;22.70;;
69392;SDS011;56582;44.624;20.378;2023-12-20T07:55:26;33.57;;;21.40;;
69392;SDS011;56582;44.624;20.378;2023-12-20T07:57:52;32.08;;;18.15;;
69392;SDS011;56582;44.624;20.378;2023-12-20T08:00:18;26.07;;;17.57;;
69392;SDS011;56582;44.624;20.378;2023-12-20T08:02:44;31.52;;;19.00;;
69392;SDS011;56582;44.624;20.378;2023-12-20T08:05:10;28.17;;;16.52;;
69392;SDS011;56582;44.624;20.378;2023-12-20T08:07:35;29.27;;;17.80;;
69392;SDS011;56582;44.624;20.378;2023-12-20T08:10:01;28.38;;;17.42;;
69392;SDS011;56582;44.624;20.378;2023-12-20T08:12:27;26.60;;;16.23;;
69392;SDS011;56582;44.624;20.378;2023-12-20T08:14:53;26.45;;;17.33;;
69392;SDS011;56582;44.624;20.378;2023-12-20T08:17:19;26.77;;;16.83;;
69392;SDS011;56582;44.624;20.378;2023-12-20T08:19:45;27.48;;;16.63;;
69392;SDS011;56582;44.624;20.378;2023-12-20T08:22:11;29.52;;;18.52;;
69392;SDS011;56582;44.624;20.378;2023-12-20T08:24:36;30.27;;;19.47;;
69392;SDS011;56582;44.624;20.378;2023-12-20T08:27:03;29.63;;;18.38;;
69392;SDS011;56582;44.624;20.378;2023-12-20T08:29:30;31.85;;;19.50;;
69392;SDS011;56582;44.624;20.378;2023-12-20T08:31:55;31.73;;;18.87;;
69392;SDS011;56582;44.624;20.378;2023-12-20T08:34:21;32.38;;;20.60;;
69392;SDS011;56582;44.624;20.378;2023-12-20T08:36:50;35.33;;;21.92;;
69392;SDS011;56582;44.624;20.378;2023-12-20T08:39:16;40.28;;;20.88;;
69392;SDS011;56582;44.624;20.378;2023-12-20T08:41:42;35.27;;;21.07;;
69392;SDS011;56582;44.624;20.378;2023-12-20T08:44:08;35.85;;;22.35;;
69392;SDS011;56582;44.624;20.378;2023-12-20T08:46:34;38.55;;;23.60;;
69392;SDS011;56582;44.624;20.378;2023-12-20T08:49:00;35.20;;;22.02;;
69392;SDS011;56582;44.624;20.378;2023-12-20T08:51:26;39.03;;;22.20;;
69392;SDS011;56582;44.624;20.378;2023-12-20T08:53:52;37.10;;;22.35;;
69392;SDS011;56582;44.624;20.378;2023-12-20T08:56:17;36.73;;;22.03;;
69392;SDS011;56582;44.624;20.378;2023-12-20T08:58:43;33.53;;;21.25;;
69392;SDS011;56582;44.624;20.378;2023-12-20T09:01:09;40.23;;;23.17;;
69392;SDS011;56582;44.624;20.378;2023-12-20T09:03:35;41.60;;;24.80;;
69392;SDS011;56582;44.624;20.378;2023-12-20T09:06:00;42.30;;;23.03;;
69392;SDS011;56582;44.624;20.378;2023-12-20T09:08:26;49.85;;;28.23;;
69392;SDS011;56582;44.624;20.378;2023-12-20T09:10:51;52.73;;;29.03;;
69392;SDS011;56582;44.624;20.378;2023-12-20T09:13:17;52.37;;;28.87;;
69392;SDS011;56582;44.624;20.378;2023-12-20T09:15:42;47.60;;;27.02;;
69392;SDS011;56582;44.624;20.378;2023-12-20T09:18:08;43.90;;;24.43;;
69392;SDS011;56582;44.624;20.378;2023-12-20T09:20:34;51.50;;;29.17;;
69392;SDS011;56582;44.624;20.378;2023-12-20T09:22:59;44.63;;;28.15;;
69392;SDS011;56582;44.624;20.378;2023-12-20T09:25:25;42.67;;;24.20;;
69392;SDS011;56582;44.624;20.378;2023-12-20T09:27:51;43.05;;;23.23;;
69392;SDS011;56582;44.624;20.378;2023-12-20T09:30:17;42.22;;;24.63;;
69392;SDS011;56582;44.624;20.378;2023-12-20T09:32:43;53.83;;;27.67;;
69392;SDS011;56582;44.624;20.378;2023-12-20T09:35:10;51.20;;;26.80;;
69392;SDS011;56582;44.624;20.378;2023-12-20T09:37:35;51.33;;;28.23;;
69392;SDS011;56582;44.624;20.378;2023-12-20T09:40:01;34.93;;;21.73;;
69392;SDS011;56582;44.624;20.378;2023-12-20T09:42:34;50.10;;;28.73;;
69392;SDS011;56582;44.624;20.378;2023-12-20T09:45:06;40.22;;;23.30;;
69392;SDS011;56582;44.624;20.378;2023-12-20T09:47:34;37.35;;;20.65;;
69392;SDS011;56582;44.624;20.378;2023-12-20T09:50:01;35.78;;;20.88;;
69392;SDS011;56582;44.624;20.378;2023-12-20T09:52:27;35.20;;;20.07;;
69392;SDS011;56582;44.624;20.378;2023-12-20T09:54:54;44.50;;;23.40;;
69392;SDS011;56582;44.624;20.378;2023-12-20T09:57:22;34.25;;;19.55;;
69392;SDS011;56582;44.624;20.378;2023-12-20T09:59:47;38.93;;;23.07;;
69392;SDS011;56582;44.624;20.378;2023-12-20T10:02:13;32.08;;;20.02;;
69392;SDS011;56582;44.624;20.378;2023-12-20T10:04:42;31.30;;;18.70;;
69392;SDS011;56582;44.624;20.378;2023-12-20T10:07:12;48.63;;;25.58;;
69392;SDS011;56582;44.624;20.378;2023-12-20T10:09:38;36.87;;;22.03;;
69392;SDS011;56582;44.624;20.378;2023-12-20T10:12:04;47.93;;;25.67;;
69392;SDS011;56582;44.624;20.378;2023-12-20T10:14:30;38.38;;;21.90;;
69392;SDS011;56582;44.624;20.378;2023-12-20T10:17:03;41.95;;;24.73;;
69392;SDS011;56582;44.624;20.378;2023-12-20T10:19:30;41.15;;;23.02;;
69392;SDS011;56582;44.624;20.378;2023-12-20T10:21:57;34.63;;;21.70;;
69392;SDS011;56582;44.624;20.378;2023-12-20T10:24:24;36.65;;;21.73;;
69392;SDS011;56582;44.624;20.378;2023-12-20T10:27:00;36.47;;;23.30;;
69392;SDS011;56582;44.624;20.378;2023-12-20T10:29:36;39.30;;;22.10;;
69392;SDS011;56582;44.624;20.378;2023-12-20T10:34:52;40.45;;;23.10;;
69392;SDS011;56582;44.624;20.378;2023-12-20T10:37:21;39.13;;;23.05;;
69392;SDS011;56582;44.624;20.378;2023-12-20T10:39:50;39.97;;;22.47;;
69392;SDS011;56582;44.624;20.378;2023-12-20T10:42:21;44.15;;;22.48;;
69392;SDS011;56582;44.624;20.378;2023-12-20T10:44:53;41.80;;;23.67;;
69392;SDS011;56582;44.624;20.378;2023-12-20T10:47:19;53.50;;;28.13;;
69392;SDS011;56582;44.624;20.378;2023-12-20T10:49:45;61.88;;;35.50;;
69392;SDS011;56582;44.624;20.378;2023-12-20T10:52:11;63.17;;;33.73;;
69392;SDS011;56582;44.624;20.378;2023-12-20T10:54:40;72.65;;;39.88;;
69392;SDS011;56582;44.624;20.378;2023-12-20T10:57:06;62.17;;;34.90;;
69392;SDS011;56582;44.624;20.378;2023-12-20T10:59:38;59.92;;;33.60;;
69392;SDS011;56582;44.624;20.378;2023-12-20T11:02:05;60.40;;;33.50;;
69392;SDS011;56582;44.624;20.378;2023-12-20T11:05:19;63.07;;;37.23;;
69392;SDS011;56582;44.624;20.378;2023-12-20T11:10:31;58.05;;;33.63;;
69392;SDS011;56582;44.624;20.378;2023-12-20T11:15:51;71.65;;;38.55;;
69392;SDS011;56582;44.624;20.378;2023-12-20T11:18:17;63.40;;;34.97;;
69392;SDS011;56582;44.624;20.378;2023-12-20T11:20:42;63.60;;;34.47;;
69392;SDS011;56582;44.624;20.378;2023-12-20T11:23:08;69.05;;;37.00;;
69392;SDS011;56582;44.624;20.378;2023-12-20T11:25:47;59.53;;;33.58;;
69392;SDS011;56582;44.624;20.378;2023-12-20T11:28:13;68.80;;;37.10;;
69392;SDS011;56582;44.624;20.378;2023-12-20T11:33:11;69.90;;;38.15;;
69392;SDS011;56582;44.624;20.378;2023-12-20T11:35:37;57.60;;;32.70;;
69392;SDS011;56582;44.624;20.378;2023-12-20T11:38:07;58.13;;;32.63;;
69392;SDS011;56582;44.624;20.378;2023-12-20T11:40:34;81.30;;;40.80;;
69392;SDS011;56582;44.624;20.378;2023-12-20T11:43:00;78.75;;;39.13;;
69392;SDS011;56582;44.624;20.378;2023-12-20T11:45:26;62.55;;;36.58;;
69392;SDS011;56582;44.624;20.378;2023-12-20T11:47:52;55.80;;;31.23;;
69392;SDS011;56582;44.624;20.378;2023-12-20T11:50:19;57.95;;;32.15;;
69392;SDS011;56582;44.624;20.378;2023-12-20T11:52:46;51.33;;;27.87;;
69392;SDS011;56582;44.624;20.378;2023-12-20T11:55:12;54.35;;;29.00;;
69392;SDS011;56582;44.624;20.378;2023-12-20T11:57:38;58.30;;;31.50;;
69392;SDS011;56582;44.624;20.378;2023-12-20T12:00:04;49.30;;;26.63;;
69392;SDS011;56582;44.624;20.378;2023-12-20T12:02:31;61.17;;;32.97;;
69392;SDS011;56582;44.624;20.378;2023-12-20T12:04:57;67.45;;;38.03;;
69392;SDS011;56582;44.624;20.378;2023-12-20T12:07:24;83.72;;;40.75;;
69392;SDS011;56582;44.624;20.378;2023-12-20T12:09:51;68.93;;;33.10;;
69392;SDS011;56582;44.624;20.378;2023-12-20T12:12:17;60.60;;;31.95;;
69392;SDS011;56582;44.624;20.378;2023-12-20T12:14:44;61.17;;;35.67;;
69392;SDS011;56582;44.624;20.378;2023-12-20T12:17:13;64.82;;;35.45;;
69392;SDS011;56582;44.624;20.378;2023-12-20T12:19:43;62.85;;;33.08;;
69392;SDS011;56582;44.624;20.378;2023-12-20T12:24:45;62.15;;;33.88;;
69392;SDS011;56582;44.624;20.378;2023-12-20T12:27:12;61.20;;;34.13;;
69392;SDS011;56582;44.624;20.378;2023-12-20T12:29:38;93.82;;;41.60;;
69392;SDS011;56582;44.624;20.378;2023-12-20T12:32:05;77.80;;;42.58;;
69392;SDS011;56582;44.624;20.378;2023-12-20T12:34:34;71.40;;;37.60;;
69392;SDS011;56582;44.624;20.378;2023-12-20T12:37:00;72.70;;;40.55;;
69392;SDS011;56582;44.624;20.378;2023-12-20T12:39:26;78.35;;;42.33;;
69392;SDS011;56582;44.624;20.378;2023-12-20T12:41:51;87.00;;;45.70;;
69392;SDS011;56582;44.624;20.378;2023-12-20T12:44:17;90.60;;;47.00;;
69392;SDS011;56582;44.624;20.378;2023-12-20T12:46:43;72.50;;;39.67;;
69392;SDS011;56582;44.624;20.378;2023-12-20T12:49:10;66.88;;;37.40;;
69392;SDS011;56582;44.624;20.378;2023-12-20T12:51:35;68.07;;;36.07;;
69392;SDS011;56582;44.624;20.378;2023-12-20T12:54:01;73.05;;;37.30;;
69392;SDS011;56582;44.624;20.378;2023-12-20T12:56:27;68.73;;;37.73;;
69392;SDS011;56582;44.624;20.378;2023-12-20T12:58:52;72.20;;;38.42;;
69392;SDS011;56582;44.624;20.378;2023-12-20T13:01:18;74.63;;;40.33;;
69392;SDS011;56582;44.624;20.378;2023-12-20T13:03:43;75.03;;;38.97;;
69392;SDS011;56582;44.624;20.378;2023-12-20T13:06:09;73.55;;;39.30;;
69392;SDS011;56582;44.624;20.378;2023-12-20T13:08:34;70.77;;;40.60;;
69392;SDS011;56582;44.624;20.378;2023-12-20T13:11:00;68.67;;;39.27;;
69392;SDS011;56582;44.624;20.378;2023-12-20T13:13:29;78.43;;;41.13;;
69392;SDS011;56582;44.624;20.378;2023-12-20T13:15:55;72.15;;;39.17;;
69392;SDS011;56582;44.624;20.378;2023-12-20T13:18:21;73.13;;;39.40;;
69392;SDS011;56582;44.624;20.378;2023-12-20T13:20:47;89.78;;;44.83;;
69392;SDS011;56582;44.624;20.378;2023-12-20T13:23:13;85.05;;;43.63;;
69392;SDS011;56582;44.624;20.378;2023-12-20T13:25:39;91.90;;;46.10;;
69392;SDS011;56582;44.624;20.378;2023-12-20T13:28:05;95.13;;;49.47;;
69392;SDS011;56582;44.624;20.378;2023-12-20T13:30:31;93.53;;;45.90;;
69392;SDS011;56582;44.624;20.378;2023-12-20T13:32:56;93.60;;;47.50;;
69392;SDS011;56582;44.624;20.378;2023-12-20T13:35:22;92.05;;;46.70;;
69392;SDS011;56582;44.624;20.378;2023-12-20T13:37:47;80.73;;;40.30;;
69392;SDS011;56582;44.624;20.378;2023-12-20T13:40:13;96.87;;;49.87;;
69392;SDS011;56582;44.624;20.378;2023-12-20T13:42:39;92.65;;;46.47;;
69392;SDS011;56582;44.624;20.378;2023-12-20T13:45:05;105.67;;;52.57;;
69392;SDS011;56582;44.624;20.378;2023-12-20T13:47:32;103.57;;;52.63;;
69392;SDS011;56582;44.624;20.378;2023-12-20T13:49:57;91.25;;;49.38;;
69392;SDS011;56582;44.624;20.378;2023-12-20T13:52:23;91.13;;;48.80;;
69392;SDS011;56582;44.624;20.378;2023-12-20T13:54:48;89.00;;;46.67;;
69392;SDS011;56582;44.624;20.378;2023-12-20T13:57:14;89.50;;;46.40;;
69392;SDS011;56582;44.624;20.378;2023-12-20T13:59:40;93.67;;;51.07;;
69392;SDS011;56582;44.624;20.378;2023-12-20T14:02:05;97.93;;;51.75;;
69392;SDS011;56582;44.624;20.378;2023-12-20T14:04:31;98.03;;;51.37;;
69392;SDS011;56582;44.624;20.378;2023-12-20T14:06:56;105.47;;;54.60;;
69392;SDS011;56582;44.624;20.378;2023-12-20T14:09:22;89.27;;;44.50;;
69392;SDS011;56582;44.624;20.378;2023-12-20T14:11:48;102.80;;;54.92;;
69392;SDS011;56582;44.624;20.378;2023-12-20T14:14:13;89.80;;;49.40;;
69392;SDS011;56582;44.624;20.378;2023-12-20T14:16:39;97.97;;;53.67;;
69392;SDS011;56582;44.624;20.378;2023-12-20T14:19:04;108.43;;;60.07;;